sensor_id;sensor_type;location;lat;lon;timestamp;P1;durP1;ratioP1;P2;durP2;ratioP2
64110;SDS011;50401;48.188;11.566;2023-05-14T00:02:11;20.27;;;12.88;;
64110;SDS011;50401;48.188;11.566;2023-05-14T00:04:37;18.95;;;11.88;;
64110;SDS011;50401;48.188;11.566;2023-05-14T00:07:02;22.45;;;12.27;;
64110;SDS011;50401;48.188;11.566;2023-05-14T00:09:28;19.95;;;12.68;;
64110;SDS011;50401;48.188;11.566;2023-05-14T00:11:54;22.92;;;12.57;;
64110;SDS011;50401;48.188;11.566;2023-05-14T00:14:20;20.27;;;13.13;;
64110;SDS011;50401;48.188;11.566;2023-05-14T00:16:46;23.73;;;12.70;;
64110;SDS011;50401;48.188;11.566;2023-05-14T00:19:11;20.20;;;11.43;;
64110;SDS011;50401;48.188;11.566;2023-05-14T00:21:37;19.88;;;12.40;;
64110;SDS011;50401;48.188;11.566;2023-05-14T00:24:02;21.90;;;11.60;;
64110;SDS011;50401;48.188;11.566;2023-05-14T00:26:28;22.52;;;11.90;;
64110;SDS011;50401;48.188;11.566;2023-05-14T00:28:53;21.80;;;12.18;;
64110;SDS011;50401;48.188;11.566;2023-05-14T00:31:18;21.35;;;11.70;;
64110;SDS011;50401;48.188;11.566;2023-05-14T00:33:44;18.65;;;12.07;;
64110;SDS011;50401;48.188;11.566;2023-05-14T00:36:09;18.90;;;11.50;;
64110;SDS011;50401;48.188;11.566;2023-05-14T00:38:35;22.50;;;13.55;;
64110;SDS011;50401;48.188;11.566;2023-05-14T00:41:00;17.05;;;11.25;;
64110;SDS011;50401;48.188;11.566;2023-05-14T00:43:25;26.52;;;12.95;;
64110;SDS011;50401;48.188;11.566;2023-05-14T00:45:51;20.15;;;11.40;;
64110;SDS011;50401;48.188;11.566;2023-05-14T00:48:21;24.17;;;12.90;;
64110;SDS011;50401;48.188;11.566;2023-05-14T00:50:48;19.58;;;12.02;;
64110;SDS011;50401;48.188;11.566;2023-05-14T00:53:14;24.02;;;13.68;;
64110;SDS011;50401;48.188;11.566;2023-05-14T00:55:41;24.33;;;14.25;;
64110;SDS011;50401;48.188;11.566;2023-05-14T00:58:08;19.98;;;12.32;;
64110;SDS011;50401;48.188;11.566;2023-05-14T01:03:04;20.58;;;13.27;;
64110;SDS011;50401;48.188;11.566;2023-05-14T01:05:43;22.08;;;12.43;;
64110;SDS011;50401;48.188;11.566;2023-05-14T01:08:14;21.60;;;13.00;;
64110;SDS011;50401;48.188;11.566;2023-05-14T01:10:55;22.67;;;14.07;;
64110;SDS011;50401;48.188;11.566;2023-05-14T01:16:05;19.00;;;12.60;;
64110;SDS011;50401;48.188;11.566;2023-05-14T01:18:35;20.40;;;12.73;;
64110;SDS011;50401;48.188;11.566;2023-05-14T01:21:00;20.02;;;12.73;;
64110;SDS011;50401;48.188;11.566;2023-05-14T01:23:26;23.73;;;13.27;;
64110;SDS011;50401;48.188;11.566;2023-05-14T01:25:51;22.33;;;13.18;;
64110;SDS011;50401;48.188;11.566;2023-05-14T01:28:18;20.73;;;13.13;;
64110;SDS011;50401;48.188;11.566;2023-05-14T01:30:45;23.42;;;13.73;;
64110;SDS011;50401;48.188;11.566;2023-05-14T01:33:13;22.55;;;13.75;;
64110;SDS011;50401;48.188;11.566;2023-05-14T01:35:42;20.15;;;12.85;;
64110;SDS011;50401;48.188;11.566;2023-05-14T01:38:09;21.75;;;13.27;;
64110;SDS011;50401;48.188;11.566;2023-05-14T01:40:36;19.63;;;12.75;;
64110;SDS011;50401;48.188;11.566;2023-05-14T01:43:02;19.05;;;12.25;;
64110;SDS011;50401;48.188;11.566;2023-05-14T01:45:28;17.77;;;12.70;;
64110;SDS011;50401;48.188;11.566;2023-05-14T01:47:55;20.98;;;12.75;;
64110;SDS011;50401;48.188;11.566;2023-05-14T01:50:20;22.65;;;13.40;;
64110;SDS011;50401;48.188;11.566;2023-05-14T01:52:46;17.40;;;12.25;;
64110;SDS011;50401;48.188;11.566;2023-05-14T01:55:12;20.30;;;12.38;;
64110;SDS011;50401;48.188;11.566;2023-05-14T01:57:37;21.15;;;13.15;;
64110;SDS011;50401;48.188;11.566;2023-05-14T02:00:03;19.08;;;12.48;;
64110;SDS011;50401;48.188;11.566;2023-05-14T02:02:29;22.40;;;12.02;;
64110;SDS011;50401;48.188;11.566;2023-05-14T02:04:54;18.92;;;11.93;;
64110;SDS011;50401;48.188;11.566;2023-05-14T02:07:20;18.92;;;12.10;;
64110;SDS011;50401;48.188;11.566;2023-05-14T02:09:45;21.33;;;13.10;;
64110;SDS011;50401;48.188;11.566;2023-05-14T02:12:11;24.17;;;12.68;;
64110;SDS011;50401;48.188;11.566;2023-05-14T02:14:36;18.23;;;11.93;;
64110;SDS011;50401;48.188;11.566;2023-05-14T02:17:02;19.92;;;11.48;;
64110;SDS011;50401;48.188;11.566;2023-05-14T02:19:28;18.15;;;11.93;;
64110;SDS011;50401;48.188;11.566;2023-05-14T02:21:53;15.20;;;11.00;;
64110;SDS011;50401;48.188;11.566;2023-05-14T02:24:19;16.05;;;10.45;;
64110;SDS011;50401;48.188;11.566;2023-05-14T02:26:44;18.92;;;10.75;;
64110;SDS011;50401;48.188;11.566;2023-05-14T02:29:10;16.13;;;10.90;;
64110;SDS011;50401;48.188;11.566;2023-05-14T02:31:35;17.73;;;11.35;;
64110;SDS011;50401;48.188;11.566;2023-05-14T02:34:01;24.38;;;11.30;;
64110;SDS011;50401;48.188;11.566;2023-05-14T02:36:27;23.08;;;11.77;;
64110;SDS011;50401;48.188;11.566;2023-05-14T02:38:53;19.35;;;11.27;;
64110;SDS011;50401;48.188;11.566;2023-05-14T02:41:18;15.43;;;11.20;;
64110;SDS011;50401;48.188;11.566;2023-05-14T02:43:45;23.92;;;10.88;;
64110;SDS011;50401;48.188;11.566;2023-05-14T02:46:10;15.85;;;10.10;;
64110;SDS011;50401;48.188;11.566;2023-05-14T02:48:36;15.88;;;10.90;;
64110;SDS011;50401;48.188;11.566;2023-05-14T02:51:01;20.33;;;11.00;;
64110;SDS011;50401;48.188;11.566;2023-05-14T02:53:27;16.13;;;11.05;;
64110;SDS011;50401;48.188;11.566;2023-05-14T02:55:52;25.65;;;12.93;;
64110;SDS011;50401;48.188;11.566;2023-05-14T02:58:17;25.40;;;11.18;;
64110;SDS011;50401;48.188;11.566;2023-05-14T03:00:43;18.00;;;11.45;;
64110;SDS011;50401;48.188;11.566;2023-05-14T03:03:08;18.70;;;11.80;;
64110;SDS011;50401;48.188;11.566;2023-05-14T03:05:34;17.70;;;10.85;;
64110;SDS011;50401;48.188;11.566;2023-05-14T03:07:59;15.52;;;11.15;;
64110;SDS011;50401;48.188;11.566;2023-05-14T03:10:25;19.27;;;11.55;;
64110;SDS011;50401;48.188;11.566;2023-05-14T03:12:50;21.63;;;11.52;;
64110;SDS011;50401;48.188;11.566;2023-05-14T03:15:16;18.50;;;12.07;;
64110;SDS011;50401;48.188;11.566;2023-05-14T03:17:41;19.95;;;11.95;;
64110;SDS011;50401;48.188;11.566;2023-05-14T03:20:07;20.52;;;11.63;;
64110;SDS011;50401;48.188;11.566;2023-05-14T03:22:32;17.50;;;11.20;;
64110;SDS011;50401;48.188;11.566;2023-05-14T03:24:58;22.40;;;11.98;;
64110;SDS011;50401;48.188;11.566;2023-05-14T03:27:23;21.38;;;12.10;;
64110;SDS011;50401;48.188;11.566;2023-05-14T03:29:48;23.98;;;13.13;;
64110;SDS011;50401;48.188;11.566;2023-05-14T03:32:14;22.30;;;12.85;;
64110;SDS011;50401;48.188;11.566;2023-05-14T03:34:39;20.45;;;12.80;;
64110;SDS011;50401;48.188;11.566;2023-05-14T03:37:05;22.02;;;13.07;;
64110;SDS011;50401;48.188;11.566;2023-05-14T03:39:30;24.23;;;13.40;;
64110;SDS011;50401;48.188;11.566;2023-05-14T03:41:56;27.83;;;14.00;;
64110;SDS011;50401;48.188;11.566;2023-05-14T03:44:22;25.90;;;13.88;;
64110;SDS011;50401;48.188;11.566;2023-05-14T03:46:49;20.95;;;13.63;;
64110;SDS011;50401;48.188;11.566;2023-05-14T03:49:14;24.02;;;14.25;;
64110;SDS011;50401;48.188;11.566;2023-05-14T03:51:39;27.35;;;14.90;;
64110;SDS011;50401;48.188;11.566;2023-05-14T03:54:05;24.83;;;15.23;;
64110;SDS011;50401;48.188;11.566;2023-05-14T03:56:30;25.00;;;14.20;;
64110;SDS011;50401;48.188;11.566;2023-05-14T03:58:56;27.75;;;14.57;;
64110;SDS011;50401;48.188;11.566;2023-05-14T04:01:21;33.08;;;15.65;;
64110;SDS011;50401;48.188;11.566;2023-05-14T04:03:46;31.92;;;15.73;;
64110;SDS011;50401;48.188;11.566;2023-05-14T04:06:12;33.00;;;16.65;;
64110;SDS011;50401;48.188;11.566;2023-05-14T04:08:37;30.75;;;16.25;;
64110;SDS011;50401;48.188;11.566;2023-05-14T04:11:02;30.85;;;16.15;;
64110;SDS011;50401;48.188;11.566;2023-05-14T04:13:28;30.90;;;16.33;;
64110;SDS011;50401;48.188;11.566;2023-05-14T04:15:53;26.75;;;15.10;;
64110;SDS011;50401;48.188;11.566;2023-05-14T04:18:19;28.98;;;14.95;;
64110;SDS011;50401;48.188;11.566;2023-05-14T04:20:44;35.67;;;15.57;;
64110;SDS011;50401;48.188;11.566;2023-05-14T04:23:10;29.45;;;15.70;;
64110;SDS011;50401;48.188;11.566;2023-05-14T04:25:35;32.60;;;15.68;;
64110;SDS011;50401;48.188;11.566;2023-05-14T04:28:00;28.80;;;16.08;;
64110;SDS011;50401;48.188;11.566;2023-05-14T04:30:26;27.38;;;15.45;;
64110;SDS011;50401;48.188;11.566;2023-05-14T04:32:51;33.53;;;17.17;;
64110;SDS011;50401;48.188;11.566;2023-05-14T04:35:17;38.00;;;17.13;;
64110;SDS011;50401;48.188;11.566;2023-05-14T04:37:44;39.45;;;17.50;;
64110;SDS011;50401;48.188;11.566;2023-05-14T04:40:09;32.05;;;17.30;;
64110;SDS011;50401;48.188;11.566;2023-05-14T04:42:37;35.60;;;17.80;;
64110;SDS011;50401;48.188;11.566;2023-05-14T04:45:03;32.45;;;16.88;;
64110;SDS011;50401;48.188;11.566;2023-05-14T04:47:30;30.55;;;16.33;;
64110;SDS011;50401;48.188;11.566;2023-05-14T04:49:55;34.95;;;17.45;;
64110;SDS011;50401;48.188;11.566;2023-05-14T04:52:21;41.00;;;17.63;;
64110;SDS011;50401;48.188;11.566;2023-05-14T04:54:47;45.10;;;18.27;;
64110;SDS011;50401;48.188;11.566;2023-05-14T04:57:13;35.78;;;17.17;;
64110;SDS011;50401;48.188;11.566;2023-05-14T04:59:38;31.85;;;16.27;;
64110;SDS011;50401;48.188;11.566;2023-05-14T05:02:03;70.35;;;17.75;;
64110;SDS011;50401;48.188;11.566;2023-05-14T05:04:29;38.17;;;17.45;;
64110;SDS011;50401;48.188;11.566;2023-05-14T05:06:54;32.50;;;15.77;;
64110;SDS011;50401;48.188;11.566;2023-05-14T05:09:20;39.25;;;17.90;;
64110;SDS011;50401;48.188;11.566;2023-05-14T05:11:45;38.78;;;19.05;;
64110;SDS011;50401;48.188;11.566;2023-05-14T05:14:10;39.03;;;19.63;;
64110;SDS011;50401;48.188;11.566;2023-05-14T05:16:36;36.05;;;18.42;;
64110;SDS011;50401;48.188;11.566;2023-05-14T05:19:01;36.88;;;18.08;;
64110;SDS011;50401;48.188;11.566;2023-05-14T05:21:27;34.70;;;18.73;;
64110;SDS011;50401;48.188;11.566;2023-05-14T05:23:52;36.53;;;18.15;;
64110;SDS011;50401;48.188;11.566;2023-05-14T05:26:17;35.13;;;17.90;;
64110;SDS011;50401;48.188;11.566;2023-05-14T05:28:43;33.95;;;16.55;;
64110;SDS011;50401;48.188;11.566;2023-05-14T05:31:08;33.53;;;16.60;;
64110;SDS011;50401;48.188;11.566;2023-05-14T05:33:34;34.60;;;16.95;;
64110;SDS011;50401;48.188;11.566;2023-05-14T05:35:59;34.30;;;17.00;;
64110;SDS011;50401;48.188;11.566;2023-05-14T05:38:25;36.63;;;18.65;;
64110;SDS011;50401;48.188;11.566;2023-05-14T05:40:50;38.95;;;17.83;;
64110;SDS011;50401;48.188;11.566;2023-05-14T05:43:16;45.83;;;18.67;;
64110;SDS011;50401;48.188;11.566;2023-05-14T05:45:41;38.85;;;17.23;;
64110;SDS011;50401;48.188;11.566;2023-05-14T05:48:07;41.25;;;17.42;;
64110;SDS011;50401;48.188;11.566;2023-05-14T05:50:32;33.67;;;17.63;;
64110;SDS011;50401;48.188;11.566;2023-05-14T05:52:58;38.38;;;18.38;;
64110;SDS011;50401;48.188;11.566;2023-05-14T05:55:24;35.85;;;16.10;;
64110;SDS011;50401;48.188;11.566;2023-05-14T05:57:49;30.98;;;16.20;;
64110;SDS011;50401;48.188;11.566;2023-05-14T06:00:15;32.13;;;16.83;;
64110;SDS011;50401;48.188;11.566;2023-05-14T06:02:41;32.53;;;16.23;;
64110;SDS011;50401;48.188;11.566;2023-05-14T06:05:07;30.10;;;16.58;;
64110;SDS011;50401;48.188;11.566;2023-05-14T06:07:33;34.10;;;17.92;;
64110;SDS011;50401;48.188;11.566;2023-05-14T06:09:58;37.33;;;16.63;;
64110;SDS011;50401;48.188;11.566;2023-05-14T06:12:24;35.22;;;16.92;;
64110;SDS011;50401;48.188;11.566;2023-05-14T06:14:49;34.63;;;17.35;;
64110;SDS011;50401;48.188;11.566;2023-05-14T06:17:15;30.30;;;16.25;;
64110;SDS011;50401;48.188;11.566;2023-05-14T06:19:40;34.63;;;16.48;;
64110;SDS011;50401;48.188;11.566;2023-05-14T06:22:06;30.65;;;16.42;;
64110;SDS011;50401;48.188;11.566;2023-05-14T06:24:31;33.15;;;17.30;;
64110;SDS011;50401;48.188;11.566;2023-05-14T06:26:57;27.80;;;14.75;;
64110;SDS011;50401;48.188;11.566;2023-05-14T06:29:22;30.80;;;15.77;;
64110;SDS011;50401;48.188;11.566;2023-05-14T06:31:47;26.75;;;15.18;;
64110;SDS011;50401;48.188;11.566;2023-05-14T06:34:13;32.08;;;15.65;;
64110;SDS011;50401;48.188;11.566;2023-05-14T06:36:38;31.80;;;16.40;;
64110;SDS011;50401;48.188;11.566;2023-05-14T06:39:04;27.98;;;14.90;;
64110;SDS011;50401;48.188;11.566;2023-05-14T06:41:29;31.80;;;16.38;;
64110;SDS011;50401;48.188;11.566;2023-05-14T06:43:54;29.95;;;15.63;;
64110;SDS011;50401;48.188;11.566;2023-05-14T06:46:20;35.53;;;17.10;;
64110;SDS011;50401;48.188;11.566;2023-05-14T06:48:45;33.55;;;17.23;;
64110;SDS011;50401;48.188;11.566;2023-05-14T06:51:11;28.60;;;15.43;;
64110;SDS011;50401;48.188;11.566;2023-05-14T06:53:37;33.22;;;17.50;;
64110;SDS011;50401;48.188;11.566;2023-05-14T06:56:03;30.45;;;16.05;;
64110;SDS011;50401;48.188;11.566;2023-05-14T06:58:29;36.85;;;16.58;;
64110;SDS011;50401;48.188;11.566;2023-05-14T07:00:54;31.92;;;16.23;;
64110;SDS011;50401;48.188;11.566;2023-05-14T07:03:19;31.48;;;15.48;;
64110;SDS011;50401;48.188;11.566;2023-05-14T07:05:46;31.52;;;16.17;;
64110;SDS011;50401;48.188;11.566;2023-05-14T07:08:11;28.85;;;16.77;;
64110;SDS011;50401;48.188;11.566;2023-05-14T07:10:37;30.63;;;16.48;;
64110;SDS011;50401;48.188;11.566;2023-05-14T07:13:03;35.17;;;17.25;;
64110;SDS011;50401;48.188;11.566;2023-05-14T07:15:29;33.13;;;15.73;;
64110;SDS011;50401;48.188;11.566;2023-05-14T07:17:54;32.58;;;15.77;;
64110;SDS011;50401;48.188;11.566;2023-05-14T07:20:19;34.22;;;17.27;;
64110;SDS011;50401;48.188;11.566;2023-05-14T07:22:46;29.20;;;16.33;;
64110;SDS011;50401;48.188;11.566;2023-05-14T07:25:11;31.05;;;16.35;;
64110;SDS011;50401;48.188;11.566;2023-05-14T07:27:37;32.50;;;15.77;;
64110;SDS011;50401;48.188;11.566;2023-05-14T07:30:02;29.67;;;15.23;;
64110;SDS011;50401;48.188;11.566;2023-05-14T07:32:28;29.77;;;16.13;;
64110;SDS011;50401;48.188;11.566;2023-05-14T07:34:53;30.80;;;16.73;;
64110;SDS011;50401;48.188;11.566;2023-05-14T07:37:18;30.65;;;15.27;;
64110;SDS011;50401;48.188;11.566;2023-05-14T07:39:46;28.30;;;14.45;;
64110;SDS011;50401;48.188;11.566;2023-05-14T07:42:12;29.45;;;15.35;;
64110;SDS011;50401;48.188;11.566;2023-05-14T07:44:37;27.10;;;15.40;;
64110;SDS011;50401;48.188;11.566;2023-05-14T07:47:02;30.75;;;15.88;;
64110;SDS011;50401;48.188;11.566;2023-05-14T07:49:28;30.92;;;16.55;;
64110;SDS011;50401;48.188;11.566;2023-05-14T07:51:53;28.98;;;15.18;;
64110;SDS011;50401;48.188;11.566;2023-05-14T07:54:19;26.30;;;15.55;;
64110;SDS011;50401;48.188;11.566;2023-05-14T07:56:45;26.83;;;14.48;;
64110;SDS011;50401;48.188;11.566;2023-05-14T07:59:10;29.63;;;15.52;;
64110;SDS011;50401;48.188;11.566;2023-05-14T08:01:36;29.85;;;15.10;;
64110;SDS011;50401;48.188;11.566;2023-05-14T08:04:01;29.70;;;15.70;;
64110;SDS011;50401;48.188;11.566;2023-05-14T08:06:26;32.22;;;15.90;;
64110;SDS011;50401;48.188;11.566;2023-05-14T08:08:52;29.30;;;15.02;;
64110;SDS011;50401;48.188;11.566;2023-05-14T08:11:17;21.98;;;13.13;;
64110;SDS011;50401;48.188;11.566;2023-05-14T08:13:43;27.63;;;14.50;;
64110;SDS011;50401;48.188;11.566;2023-05-14T08:16:08;25.52;;;13.55;;
64110;SDS011;50401;48.188;11.566;2023-05-14T08:18:34;28.77;;;13.50;;
64110;SDS011;50401;48.188;11.566;2023-05-14T08:20:59;22.65;;;12.63;;
64110;SDS011;50401;48.188;11.566;2023-05-14T08:23:25;21.77;;;11.25;;
64110;SDS011;50401;48.188;11.566;2023-05-14T08:25:51;21.45;;;11.88;;
64110;SDS011;50401;48.188;11.566;2023-05-14T08:28:16;21.35;;;11.77;;
64110;SDS011;50401;48.188;11.566;2023-05-14T08:30:41;18.17;;;11.80;;
64110;SDS011;50401;48.188;11.566;2023-05-14T08:33:07;24.25;;;12.27;;
64110;SDS011;50401;48.188;11.566;2023-05-14T08:35:33;20.95;;;11.70;;
64110;SDS011;50401;48.188;11.566;2023-05-14T08:37:58;18.98;;;11.68;;
64110;SDS011;50401;48.188;11.566;2023-05-14T08:40:23;18.65;;;11.50;;
64110;SDS011;50401;48.188;11.566;2023-05-14T08:42:50;19.15;;;11.18;;
64110;SDS011;50401;48.188;11.566;2023-05-14T08:45:19;20.95;;;12.05;;
64110;SDS011;50401;48.188;11.566;2023-05-14T08:47:49;22.13;;;12.55;;
64110;SDS011;50401;48.188;11.566;2023-05-14T08:50:15;21.48;;;12.57;;
64110;SDS011;50401;48.188;11.566;2023-05-14T08:52:43;21.08;;;12.50;;
64110;SDS011;50401;48.188;11.566;2023-05-14T08:55:10;19.75;;;11.68;;
64110;SDS011;50401;48.188;11.566;2023-05-14T08:57:39;21.98;;;12.02;;
64110;SDS011;50401;48.188;11.566;2023-05-14T09:00:05;20.80;;;11.52;;
64110;SDS011;50401;48.188;11.566;2023-05-14T09:02:38;21.55;;;11.70;;
64110;SDS011;50401;48.188;11.566;2023-05-14T09:05:04;19.80;;;12.35;;
64110;SDS011;50401;48.188;11.566;2023-05-14T09:07:31;17.85;;;11.05;;
64110;SDS011;50401;48.188;11.566;2023-05-14T09:09:57;22.13;;;13.68;;
64110;SDS011;50401;48.188;11.566;2023-05-14T09:12:23;20.27;;;11.43;;
64110;SDS011;50401;48.188;11.566;2023-05-14T09:14:49;20.33;;;11.20;;
64110;SDS011;50401;48.188;11.566;2023-05-14T09:17:15;18.67;;;11.82;;
64110;SDS011;50401;48.188;11.566;2023-05-14T09:19:41;24.77;;;12.80;;
64110;SDS011;50401;48.188;11.566;2023-05-14T09:22:09;18.15;;;11.77;;
64110;SDS011;50401;48.188;11.566;2023-05-14T09:24:36;17.27;;;11.02;;
64110;SDS011;50401;48.188;11.566;2023-05-14T09:27:03;15.55;;;10.50;;
64110;SDS011;50401;48.188;11.566;2023-05-14T09:29:29;16.17;;;10.88;;
64110;SDS011;50401;48.188;11.566;2023-05-14T09:31:55;17.40;;;10.38;;
64110;SDS011;50401;48.188;11.566;2023-05-14T09:36:55;16.50;;;10.82;;
64110;SDS011;50401;48.188;11.566;2023-05-14T09:39:21;16.50;;;11.38;;
64110;SDS011;50401;48.188;11.566;2023-05-14T09:41:50;18.17;;;11.10;;
64110;SDS011;50401;48.188;11.566;2023-05-14T09:44:16;14.90;;;10.43;;
64110;SDS011;50401;48.188;11.566;2023-05-14T09:46:43;16.95;;;10.65;;
64110;SDS011;50401;48.188;11.566;2023-05-14T09:49:09;16.67;;;10.30;;
64110;SDS011;50401;48.188;11.566;2023-05-14T09:51:35;16.80;;;11.70;;
64110;SDS011;50401;48.188;11.566;2023-05-14T09:54:01;16.60;;;11.52;;
64110;SDS011;50401;48.188;11.566;2023-05-14T09:56:28;18.65;;;12.60;;
64110;SDS011;50401;48.188;11.566;2023-05-14T09:58:54;17.77;;;12.50;;
64110;SDS011;50401;48.188;11.566;2023-05-14T10:01:20;18.02;;;12.65;;
64110;SDS011;50401;48.188;11.566;2023-05-14T10:03:46;15.88;;;11.05;;
64110;SDS011;50401;48.188;11.566;2023-05-14T10:06:13;16.25;;;11.55;;
64110;SDS011;50401;48.188;11.566;2023-05-14T10:08:43;16.77;;;11.10;;
64110;SDS011;50401;48.188;11.566;2023-05-14T10:11:13;15.60;;;10.10;;
64110;SDS011;50401;48.188;11.566;2023-05-14T10:14:06;18.95;;;10.00;;
64110;SDS011;50401;48.188;11.566;2023-05-14T10:16:43;17.27;;;10.23;;
64110;SDS011;50401;48.188;11.566;2023-05-14T10:19:12;16.55;;;10.32;;
64110;SDS011;50401;48.188;11.566;2023-05-14T10:21:40;15.05;;;9.13;;
64110;SDS011;50401;48.188;11.566;2023-05-14T10:24:08;15.80;;;9.15;;
64110;SDS011;50401;48.188;11.566;2023-05-14T10:26:35;16.40;;;10.32;;
64110;SDS011;50401;48.188;11.566;2023-05-14T10:29:03;13.80;;;9.73;;
64110;SDS011;50401;48.188;11.566;2023-05-14T10:31:49;14.80;;;8.85;;
64110;SDS011;50401;48.188;11.566;2023-05-14T10:37:11;14.15;;;9.15;;
64110;SDS011;50401;48.188;11.566;2023-05-14T10:42:12;15.85;;;9.13;;
64110;SDS011;50401;48.188;11.566;2023-05-14T10:44:44;13.82;;;8.82;;
64110;SDS011;50401;48.188;11.566;2023-05-14T10:47:12;15.10;;;9.80;;
64110;SDS011;50401;48.188;11.566;2023-05-14T10:49:40;13.32;;;8.60;;
64110;SDS011;50401;48.188;11.566;2023-05-14T10:52:07;10.85;;;8.05;;
64110;SDS011;50401;48.188;11.566;2023-05-14T10:54:36;12.43;;;8.93;;
64110;SDS011;50401;48.188;11.566;2023-05-14T10:57:01;12.30;;;8.65;;
64110;SDS011;50401;48.188;11.566;2023-05-14T10:59:26;12.73;;;8.77;;
64110;SDS011;50401;48.188;11.566;2023-05-14T11:01:52;13.18;;;8.38;;
64110;SDS011;50401;48.188;11.566;2023-05-14T11:04:18;11.93;;;8.73;;
64110;SDS011;50401;48.188;11.566;2023-05-14T11:09:12;14.48;;;9.02;;
64110;SDS011;50401;48.188;11.566;2023-05-14T11:11:41;14.38;;;8.93;;
64110;SDS011;50401;48.188;11.566;2023-05-14T11:14:07;12.15;;;8.93;;
64110;SDS011;50401;48.188;11.566;2023-05-14T11:16:33;11.90;;;8.02;;
64110;SDS011;50401;48.188;11.566;2023-05-14T11:18:59;17.65;;;9.15;;
64110;SDS011;50401;48.188;11.566;2023-05-14T11:21:29;15.52;;;8.55;;
64110;SDS011;50401;48.188;11.566;2023-05-14T11:23:56;12.13;;;8.75;;
64110;SDS011;50401;48.188;11.566;2023-05-14T11:26:22;14.73;;;8.95;;
64110;SDS011;50401;48.188;11.566;2023-05-14T11:28:48;11.93;;;8.40;;
64110;SDS011;50401;48.188;11.566;2023-05-14T11:31:13;12.68;;;8.45;;
64110;SDS011;50401;48.188;11.566;2023-05-14T11:33:39;9.63;;;7.35;;
64110;SDS011;50401;48.188;11.566;2023-05-14T11:36:04;11.73;;;8.55;;
64110;SDS011;50401;48.188;11.566;2023-05-14T11:38:30;12.10;;;8.00;;
64110;SDS011;50401;48.188;11.566;2023-05-14T11:40:56;11.15;;;8.13;;
64110;SDS011;50401;48.188;11.566;2023-05-14T11:43:23;12.85;;;8.35;;
64110;SDS011;50401;48.188;11.566;2023-05-14T11:45:50;10.00;;;7.53;;
64110;SDS011;50401;48.188;11.566;2023-05-14T11:48:17;9.95;;;7.63;;
64110;SDS011;50401;48.188;11.566;2023-05-14T11:50:46;13.85;;;7.72;;
64110;SDS011;50401;48.188;11.566;2023-05-14T11:53:33;10.20;;;7.40;;
64110;SDS011;50401;48.188;11.566;2023-05-14T11:55:58;9.52;;;7.32;;
64110;SDS011;50401;48.188;11.566;2023-05-14T11:58:24;13.80;;;8.20;;
64110;SDS011;50401;48.188;11.566;2023-05-14T12:00:50;11.10;;;7.82;;
64110;SDS011;50401;48.188;11.566;2023-05-14T12:03:19;13.70;;;8.07;;
64110;SDS011;50401;48.188;11.566;2023-05-14T12:05:59;11.32;;;7.88;;
64110;SDS011;50401;48.188;11.566;2023-05-14T12:08:26;10.23;;;8.25;;
64110;SDS011;50401;48.188;11.566;2023-05-14T12:10:53;9.70;;;7.80;;
64110;SDS011;50401;48.188;11.566;2023-05-14T12:13:19;13.07;;;7.85;;
64110;SDS011;50401;48.188;11.566;2023-05-14T12:15:45;11.82;;;8.90;;
64110;SDS011;50401;48.188;11.566;2023-05-14T12:18:11;13.25;;;9.63;;
64110;SDS011;50401;48.188;11.566;2023-05-14T12:20:37;11.43;;;8.35;;
64110;SDS011;50401;48.188;11.566;2023-05-14T12:23:02;13.38;;;8.35;;
64110;SDS011;50401;48.188;11.566;2023-05-14T12:25:28;10.80;;;7.63;;
64110;SDS011;50401;48.188;11.566;2023-05-14T12:27:53;12.15;;;7.75;;
64110;SDS011;50401;48.188;11.566;2023-05-14T12:30:19;10.80;;;7.35;;
64110;SDS011;50401;48.188;11.566;2023-05-14T12:32:44;9.60;;;7.70;;
64110;SDS011;50401;48.188;11.566;2023-05-14T12:35:10;10.50;;;7.40;;
64110;SDS011;50401;48.188;11.566;2023-05-14T12:37:36;9.45;;;7.10;;
64110;SDS011;50401;48.188;11.566;2023-05-14T12:40:03;9.93;;;7.43;;
64110;SDS011;50401;48.188;11.566;2023-05-14T12:42:38;10.20;;;7.05;;
64110;SDS011;50401;48.188;11.566;2023-05-14T12:45:04;9.02;;;6.57;;
64110;SDS011;50401;48.188;11.566;2023-05-14T12:47:31;9.73;;;5.95;;
64110;SDS011;50401;48.188;11.566;2023-05-14T12:49:57;7.00;;;6.00;;
64110;SDS011;50401;48.188;11.566;2023-05-14T12:52:23;9.32;;;6.45;;
64110;SDS011;50401;48.188;11.566;2023-05-14T12:54:48;8.35;;;6.78;;
64110;SDS011;50401;48.188;11.566;2023-05-14T12:57:14;9.65;;;7.10;;
64110;SDS011;50401;48.188;11.566;2023-05-14T12:59:39;8.77;;;6.53;;
64110;SDS011;50401;48.188;11.566;2023-05-14T13:02:05;10.60;;;6.65;;
64110;SDS011;50401;48.188;11.566;2023-05-14T13:04:31;6.97;;;5.80;;
64110;SDS011;50401;48.188;11.566;2023-05-14T13:06:56;7.63;;;5.80;;
64110;SDS011;50401;48.188;11.566;2023-05-14T13:09:21;6.95;;;5.97;;
64110;SDS011;50401;48.188;11.566;2023-05-14T13:11:47;8.93;;;5.82;;
64110;SDS011;50401;48.188;11.566;2023-05-14T13:14:12;6.72;;;5.60;;
64110;SDS011;50401;48.188;11.566;2023-05-14T13:16:37;7.72;;;5.60;;
64110;SDS011;50401;48.188;11.566;2023-05-14T13:19:03;7.70;;;5.65;;
64110;SDS011;50401;48.188;11.566;2023-05-14T13:21:28;11.35;;;5.88;;
64110;SDS011;50401;48.188;11.566;2023-05-14T13:23:53;8.23;;;6.22;;
64110;SDS011;50401;48.188;11.566;2023-05-14T13:26:19;9.50;;;5.38;;
64110;SDS011;50401;48.188;11.566;2023-05-14T13:28:44;8.50;;;5.25;;
64110;SDS011;50401;48.188;11.566;2023-05-14T13:31:10;6.78;;;4.60;;
64110;SDS011;50401;48.188;11.566;2023-05-14T13:33:38;5.93;;;4.70;;
64110;SDS011;50401;48.188;11.566;2023-05-14T13:36:06;7.32;;;4.85;;
64110;SDS011;50401;48.188;11.566;2023-05-14T13:38:32;5.53;;;4.93;;
64110;SDS011;50401;48.188;11.566;2023-05-14T13:40:57;7.05;;;5.43;;
64110;SDS011;50401;48.188;11.566;2023-05-14T13:43:26;7.82;;;5.95;;
64110;SDS011;50401;48.188;11.566;2023-05-14T13:46:01;9.27;;;5.78;;
64110;SDS011;50401;48.188;11.566;2023-05-14T13:48:28;12.77;;;5.72;;
64110;SDS011;50401;48.188;11.566;2023-05-14T13:50:54;6.20;;;4.43;;
64110;SDS011;50401;48.188;11.566;2023-05-14T13:53:20;5.35;;;4.30;;
64110;SDS011;50401;48.188;11.566;2023-05-14T13:55:47;7.43;;;3.92;;
64110;SDS011;50401;48.188;11.566;2023-05-14T13:58:12;6.75;;;4.57;;
64110;SDS011;50401;48.188;11.566;2023-05-14T14:00:38;4.97;;;3.85;;
64110;SDS011;50401;48.188;11.566;2023-05-14T14:03:03;4.90;;;3.92;;
64110;SDS011;50401;48.188;11.566;2023-05-14T14:05:29;5.75;;;3.67;;
64110;SDS011;50401;48.188;11.566;2023-05-14T14:07:55;6.25;;;3.83;;
64110;SDS011;50401;48.188;11.566;2023-05-14T14:10:21;5.63;;;4.35;;
64110;SDS011;50401;48.188;11.566;2023-05-14T14:12:47;4.80;;;3.92;;
64110;SDS011;50401;48.188;11.566;2023-05-14T14:15:12;5.72;;;4.13;;
64110;SDS011;50401;48.188;11.566;2023-05-14T14:17:38;4.70;;;3.80;;
64110;SDS011;50401;48.188;11.566;2023-05-14T14:20:06;5.63;;;3.70;;
64110;SDS011;50401;48.188;11.566;2023-05-14T14:22:32;8.82;;;3.95;;
64110;SDS011;50401;48.188;11.566;2023-05-14T14:24:57;4.95;;;3.65;;